Time;durP1;ratioP1;P1;durP2;ratioP2;P2;SDS_P1;SDS_P2;PMS_P1;PMS_P2;Temp;Humidity;BMP_temperature;BMP_pressure;BME280_temperature;BME280_humidity;BME280_pressure;Samples;Min_cycle;Max_cycle;Signal;HPM_P1;HPM_P2
2023/05/03 00:00:07;;;;;;;12.97;7.10;;;6.10;99.90;;;;;;4908602;29;20193;-60
2023/05/03 00:02:37;;;;;;;11.57;6.70;;;6.10;99.90;;;;;;4906580;29;20252;-60
2023/05/03 00:05:11;;;;;;;8.43;6.60;;;6.10;99.90;;;;;;4906121;29;20910;-60
2023/05/03 00:07:41;;;;;;;14.53;6.67;;;6.00;99.90;;;;;;4922138;29;20224;-60
2023/05/03 00:10:11;;;;;;;12.57;6.60;;;6.00;99.90;;;;;;4926123;29;20228;-60
2023/05/03 00:12:41;;;;;;;11.37;6.57;;;6.00;99.90;;;;;;4927542;29;20272;-60
2023/05/03 00:15:10;;;;;;;16.23;6.83;;;6.00;99.90;;;;;;4926485;29;20259;-60
2023/05/03 00:17:38;;;;;;;11.10;6.27;;;6.00;99.90;;;;;;4929177;29;20229;-60
2023/05/03 00:20:09;;;;;;;10.87;6.20;;;5.90;99.90;;;;;;4927903;29;20225;-60
2023/05/03 00:22:37;;;;;;;8.73;6.57;;;5.90;99.90;;;;;;4931462;29;20235;-60
2023/05/03 00:25:06;;;;;;;8.33;6.70;;;5.90;99.90;;;;;;4926018;29;20625;-60
2023/05/03 00:27:35;;;;;;;11.33;7.07;;;5.80;99.90;;;;;;4934114;29;20220;-60
2023/05/03 00:30:03;;;;;;;12.87;7.13;;;5.80;99.90;;;;;;4929289;29;20601;-60
2023/05/03 00:32:33;;;;;;;7.97;6.97;;;5.80;99.90;;;;;;4923994;29;20264;-60
2023/05/03 00:35:01;;;;;;;13.40;7.20;;;5.80;99.90;;;;;;4908866;29;20236;-60
2023/05/03 00:37:31;;;;;;;11.77;6.93;;;5.70;99.90;;;;;;4926339;29;20268;-60
2023/05/03 00:40:00;;;;;;;8.53;6.40;;;5.70;99.90;;;;;;4926463;29;20233;-60
2023/05/03 00:42:28;;;;;;;6.73;6.13;;;5.60;99.90;;;;;;4929334;29;20205;-60
2023/05/03 00:44:56;;;;;;;10.23;6.60;;;5.60;99.90;;;;;;4929260;29;20193;-60
2023/05/03 00:47:25;;;;;;;7.97;5.67;;;5.60;99.90;;;;;;4929757;29;20225;-60
2023/05/03 00:49:53;;;;;;;8.63;6.20;;;5.60;99.90;;;;;;4928166;29;20224;-60
2023/05/03 00:52:21;;;;;;;10.63;6.43;;;5.60;99.90;;;;;;4929099;29;20229;-60
2023/05/03 00:54:52;;;;;;;16.17;6.97;;;5.60;99.90;;;;;;4927410;29;20624;-60
2023/05/03 00:57:21;;;;;;;6.70;6.03;;;5.60;99.90;;;;;;4928863;29;20206;-60
2023/05/03 00:59:52;;;;;;;13.20;6.30;;;5.50;99.90;;;;;;4927349;29;20216;-60
2023/05/03 01:05:21;;;;;;;14.60;6.30;;;5.40;99.90;;;;;;5301082;23;20236;-57
2023/05/03 01:08:02;;;;;;;11.03;5.90;;;5.40;99.90;;;;;;4930733;29;20823;-57
2023/05/03 01:10:42;;;;;;;9.73;6.13;;;5.40;99.90;;;;;;4927578;29;20235;-57
2023/05/03 01:13:19;;;;;;;11.10;7.17;;;5.40;99.90;;;;;;4935894;29;20228;-58
2023/05/03 01:15:59;;;;;;;12.03;5.97;;;5.30;99.90;;;;;;4933884;29;20615;-57
2023/05/03 01:18:31;;;;;;;10.13;6.37;;;5.30;99.90;;;;;;4931618;29;20523;-57
2023/05/03 01:21:00;;;;;;;10.47;6.63;;;5.30;99.90;;;;;;4934813;29;20537;-57
2023/05/03 01:23:33;;;;;;;13.97;6.40;;;5.30;99.90;;;;;;4935147;29;20220;-57
2023/05/03 01:26:16;;;;;;;8.90;6.37;;;5.30;99.90;;;;;;4934820;29;20220;-57
2023/05/03 01:28:44;;;;;;;14.97;6.57;;;5.20;99.90;;;;;;4937231;29;20758;-57
2023/05/03 01:31:17;;;;;;;12.60;6.20;;;5.30;99.90;;;;;;4917450;29;20257;-57
2023/05/03 01:33:51;;;;;;;8.13;6.10;;;5.20;99.90;;;;;;4933462;29;20307;-57
2023/05/03 01:36:26;;;;;;;9.63;6.27;;;5.20;99.90;;;;;;4934807;29;20209;-57
2023/05/03 01:38:55;;;;;;;14.80;6.50;;;5.20;99.90;;;;;;4931002;29;20606;-57
2023/05/03 01:41:26;;;;;;;11.07;6.27;;;5.10;99.90;;;;;;4930349;29;20255;-57
2023/05/03 01:43:56;;;;;;;7.67;6.33;;;5.20;99.90;;;;;;4915019;29;20231;-57
2023/05/03 01:46:24;;;;;;;9.73;6.03;;;5.20;99.90;;;;;;4936344;29;20228;-57
2023/05/03 01:48:53;;;;;;;10.40;6.13;;;5.20;99.90;;;;;;4934342;29;20264;-57
2023/05/03 01:51:21;;;;;;;7.73;5.90;;;5.20;99.90;;;;;;4927781;29;20257;-57
2023/05/03 01:53:49;;;;;;;12.20;6.30;;;5.20;99.90;;;;;;4930036;29;20232;-58
2023/05/03 01:56:17;;;;;;;7.77;6.17;;;5.20;99.90;;;;;;4910321;29;20643;-58
2023/05/03 01:58:47;;;;;;;8.33;5.87;;;5.20;99.90;;;;;;4929975;29;20606;-57
2023/05/03 02:01:15;;;;;;;8.80;6.17;;;5.20;99.90;;;;;;4933869;29;20221;-57
2023/05/03 02:03:43;;;;;;;9.47;6.40;;;5.20;99.90;;;;;;4937419;29;20217;-57
2023/05/03 02:06:11;;;;;;;9.43;6.07;;;5.10;99.90;;;;;;4933078;29;20283;-57
2023/05/03 02:08:39;;;;;;;8.77;6.80;;;5.10;99.90;;;;;;4932296;29;20706;-57
2023/05/03 02:11:08;;;;;;;10.23;5.70;;;5.00;99.90;;;;;;4915625;29;20702;-57
2023/05/03 02:13:38;;;;;;;11.47;6.13;;;5.00;99.90;;;;;;4937672;29;20221;-57
2023/05/03 02:16:08;;;;;;;8.40;6.47;;;5.00;99.90;;;;;;4935958;29;20310;-58
2023/05/03 02:18:36;;;;;;;8.63;6.07;;;4.90;99.90;;;;;;4932756;29;20228;-57
2023/05/03 02:21:06;;;;;;;12.27;6.33;;;4.90;99.90;;;;;;4933621;29;20197;-57
2023/05/03 02:23:34;;;;;;;10.07;6.80;;;4.90;99.90;;;;;;4936631;29;20216;-56
2023/05/03 02:26:02;;;;;;;10.23;6.67;;;4.90;99.90;;;;;;4932359;29;21808;-57
2023/05/03 02:28:31;;;;;;;11.83;6.43;;;4.90;99.90;;;;;;4934893;29;20223;-57
2023/05/03 02:30:59;;;;;;;7.60;6.40;;;4.80;99.90;;;;;;4937516;29;20243;-57
2023/05/03 02:33:29;;;;;;;9.63;6.77;;;4.80;99.90;;;;;;4934977;29;20205;-57
2023/05/03 02:35:57;;;;;;;9.30;6.03;;;4.80;99.90;;;;;;4933499;29;20290;-57
2023/05/03 02:38:25;;;;;;;12.27;6.90;;;4.70;99.90;;;;;;4931755;29;20232;-57
2023/05/03 02:40:53;;;;;;;16.57;6.80;;;4.80;99.90;;;;;;4936224;29;20280;-57
2023/05/03 02:43:22;;;;;;;13.00;6.00;;;4.80;99.90;;;;;;4933255;29;20228;-57
2023/05/03 02:45:50;;;;;;;8.77;6.63;;;4.80;99.90;;;;;;4932353;29;20225;-57
2023/05/03 02:48:18;;;;;;;8.70;7.17;;;4.80;99.90;;;;;;4934064;29;20197;-56
2023/05/03 02:50:48;;;;;;;18.03;6.97;;;4.80;99.90;;;;;;4932601;29;20709;-58
2023/05/03 02:53:16;;;;;;;11.47;6.60;;;4.80;99.90;;;;;;4929283;29;20232;-57
2023/05/03 02:55:45;;;;;;;10.50;6.10;;;4.90;99.90;;;;;;4930643;29;21241;-57
2023/05/03 02:58:14;;;;;;;12.50;6.73;;;4.90;99.90;;;;;;4933373;29;20567;-57
2023/05/03 03:00:42;;;;;;;14.93;6.87;;;4.90;99.90;;;;;;4938155;29;20236;-57
2023/05/03 03:03:10;;;;;;;13.93;6.50;;;4.90;99.90;;;;;;4933808;29;20193;-57
2023/05/03 03:05:38;;;;;;;12.33;6.53;;;4.90;99.90;;;;;;4935189;29;20256;-57
2023/05/03 03:08:08;;;;;;;11.43;6.53;;;4.90;99.90;;;;;;4935413;29;20271;-57
2023/05/03 03:10:36;;;;;;;13.43;6.77;;;4.90;99.90;;;;;;4937750;29;20244;-57
2023/05/03 03:13:05;;;;;;;10.63;5.97;;;4.90;99.90;;;;;;4931477;29;20213;-57
2023/05/03 03:15:33;;;;;;;12.00;6.97;;;4.90;99.90;;;;;;4914292;29;20229;-57
2023/05/03 03:18:01;;;;;;;10.63;6.63;;;4.80;99.90;;;;;;4928686;29;20193;-57
2023/05/03 03:20:29;;;;;;;8.97;5.87;;;4.80;99.90;;;;;;4931454;29;20255;-57
2023/05/03 03:22:58;;;;;;;10.63;7.13;;;4.70;99.90;;;;;;4918449;29;20232;-57
2023/05/03 03:25:27;;;;;;;8.67;6.30;;;4.60;99.90;;;;;;4929097;29;20275;-57
2023/05/03 03:27:55;;;;;;;14.17;7.27;;;4.60;99.90;;;;;;4934133;29;20276;-58
2023/05/03 03:30:23;;;;;;;13.43;7.10;;;4.50;99.90;;;;;;4931079;29;20647;-57
2023/05/03 03:32:52;;;;;;;7.97;6.17;;;4.50;99.90;;;;;;4936405;29;20193;-57
2023/05/03 03:35:21;;;;;;;10.90;6.40;;;4.50;99.90;;;;;;4930119;29;20770;-57
2023/05/03 03:37:49;;;;;;;9.57;6.70;;;4.40;99.90;;;;;;4933718;29;20284;-57
2023/05/03 03:40:18;;;;;;;10.10;7.07;;;4.40;99.90;;;;;;4934118;29;20591;-56
2023/05/03 03:42:47;;;;;;;12.77;7.93;;;4.40;99.90;;;;;;4929742;29;20220;-57
2023/05/03 03:45:15;;;;;;;16.47;7.57;;;4.30;99.90;;;;;;4925366;29;20637;-58
2023/05/03 03:47:44;;;;;;;18.47;7.70;;;4.30;99.90;;;;;;4932150;29;20268;-57
2023/05/03 03:50:12;;;;;;;17.07;8.53;;;4.30;99.90;;;;;;4930023;29;20238;-57
2023/05/03 03:52:40;;;;;;;16.70;7.93;;;4.20;99.90;;;;;;4930316;29;20221;-57
2023/05/03 03:55:09;;;;;;;11.50;7.47;;;4.20;99.90;;;;;;4930931;29;20273;-58
2023/05/03 03:57:37;;;;;;;15.03;7.67;;;4.10;99.90;;;;;;4930831;29;20287;-57
2023/05/03 04:00:10;;;;;;;9.87;6.60;;;4.00;99.90;;;;;;4930852;29;20201;-57
2023/05/03 04:02:38;;;;;;;15.00;8.07;;;4.00;99.90;;;;;;4932088;29;20290;-57
2023/05/03 04:05:07;;;;;;;12.77;7.77;;;4.00;99.90;;;;;;4931050;29;20742;-57
2023/05/03 04:07:36;;;;;;;14.27;8.30;;;4.10;99.90;;;;;;4931399;29;20240;-57
2023/05/03 04:10:05;;;;;;;12.50;7.53;;;4.10;99.90;;;;;;4932137;29;20284;-58
2023/05/03 04:12:33;;;;;;;13.87;7.90;;;4.00;99.90;;;;;;4930569;29;20311;-57
2023/05/03 04:15:01;;;;;;;10.47;7.33;;;4.00;99.90;;;;;;4943505;29;20199;-57
2023/05/03 04:17:33;;;;;;;16.73;7.37;;;4.00;99.90;;;;;;4934785;29;20224;-57
2023/05/03 04:20:07;;;;;;;11.03;6.83;;;4.00;99.90;;;;;;4933846;29;20246;-57
2023/05/03 04:22:36;;;;;;;9.43;7.07;;;4.00;99.90;;;;;;4932444;29;20240;-57
2023/05/03 04:25:05;;;;;;;14.63;6.73;;;4.00;99.90;;;;;;4931695;29;20276;-57
2023/05/03 04:27:33;;;;;;;7.90;6.90;;;4.00;99.90;;;;;;4918761;29;20303;-57
2023/05/03 04:30:02;;;;;;;14.20;7.50;;;4.00;99.90;;;;;;4938037;29;20189;-57
2023/05/03 04:32:36;;;;;;;11.17;7.20;;;4.00;99.90;;;;;;4932520;29;20228;-57
2023/05/03 04:35:09;;;;;;;11.37;6.97;;;4.00;99.90;;;;;;4935782;29;20228;-57
2023/05/03 04:37:38;;;;;;;12.67;7.10;;;4.10;99.90;;;;;;4937710;29;20284;-58
2023/05/03 04:40:08;;;;;;;14.00;7.70;;;4.00;99.90;;;;;;4920237;29;20610;-57
2023/05/03 04:42:36;;;;;;;11.47;7.40;;;4.10;99.90;;;;;;4934658;29;21535;-58
2023/05/03 04:45:08;;;;;;;11.40;7.10;;;4.10;99.90;;;;;;4933311;29;20252;-57
2023/05/03 04:47:38;;;;;;;9.80;7.17;;;4.10;99.90;;;;;;4933476;29;20221;-57
2023/05/03 04:50:07;;;;;;;10.97;6.73;;;4.10;99.90;;;;;;4936077;29;20216;-57
2023/05/03 04:52:35;;;;;;;7.10;6.40;;;4.20;99.90;;;;;;4935521;29;20264;-57
2023/05/03 04:55:06;;;;;;;13.83;7.03;;;4.20;99.90;;;;;;4933200;29;20299;-57
2023/05/03 04:57:34;;;;;;;8.57;6.90;;;4.20;99.90;;;;;;4935674;29;20236;-57
2023/05/03 05:00:10;;;;;;;7.87;6.20;;;4.30;99.90;;;;;;4934557;29;20188;-57
2023/05/03 05:02:39;;;;;;;8.77;6.40;;;4.30;99.90;;;;;;4936767;29;20243;-58
2023/05/03 05:05:09;;;;;;;10.83;6.70;;;4.40;99.90;;;;;;4932530;29;20232;-57
2023/05/03 05:07:37;;;;;;;10.07;6.43;;;4.40;99.90;;;;;;4916928;29;20227;-57
2023/05/03 05:10:07;;;;;;;14.13;6.60;;;4.50;99.90;;;;;;4936461;29;20280;-58
2023/05/03 05:12:35;;;;;;;10.10;6.47;;;4.60;99.90;;;;;;4923435;29;20276;-57
2023/05/03 05:15:04;;;;;;;16.77;7.20;;;4.80;99.90;;;;;;4934289;29;20189;-57
2023/05/03 05:17:32;;;;;;;11.53;6.80;;;4.90;99.90;;;;;;4925116;29;20252;-57
2023/05/03 05:20:03;;;;;;;15.63;6.67;;;5.10;99.90;;;;;;4933951;29;20231;-57
2023/05/03 05:22:32;;;;;;;9.73;6.70;;;5.20;99.90;;;;;;4932268;29;20316;-57
2023/05/03 05:25:00;;;;;;;9.63;6.17;;;5.40;99.90;;;;;;4929493;29;20228;-57
2023/05/03 05:27:29;;;;;;;9.57;6.87;;;5.50;99.90;;;;;;4927576;29;20261;-57
2023/05/03 05:29:57;;;;;;;12.23;6.53;;;5.70;99.90;;;;;;4931356;29;20245;-57
2023/05/03 05:32:25;;;;;;;12.00;6.30;;;5.90;99.90;;;;;;4931564;29;20225;-57
2023/05/03 05:34:55;;;;;;;10.90;6.03;;;6.00;99.90;;;;;;4927046;29;20224;-58
2023/05/03 05:37:26;;;;;;;8.93;6.47;;;6.20;99.90;;;;;;4928811;29;20217;-57
2023/05/03 05:39:55;;;;;;;7.23;6.00;;;6.40;99.90;;;;;;4929974;29;20216;-57
2023/05/03 05:42:23;;;;;;;11.70;6.50;;;6.60;99.90;;;;;;4928607;29;20209;-57
2023/05/03 05:44:51;;;;;;;11.60;6.07;;;6.70;99.90;;;;;;4935457;29;20253;-57
2023/05/03 05:47:20;;;;;;;7.70;6.00;;;6.80;99.90;;;;;;4929128;29;20236;-57
2023/05/03 05:49:49;;;;;;;10.80;5.87;;;6.90;99.90;;;;;;4933262;29;20231;-57
2023/05/03 05:52:17;;;;;;;9.97;6.00;;;7.00;99.90;;;;;;4934490;29;20299;-57
2023/05/03 05:54:46;;;;;;;7.93;6.23;;;7.10;99.90;;;;;;4910436;29;20256;-56
2023/05/03 05:57:15;;;;;;;6.83;5.67;;;7.20;99.90;;;;;;4924744;29;20655;-57
2023/05/03 05:59:44;;;;;;;7.77;5.93;;;7.20;99.90;;;;;;4930930;29;20200;-57
2023/05/03 06:02:16;;;;;;;7.07;6.03;;;7.20;99.90;;;;;;4927656;29;20228;-57
2023/05/03 06:04:45;;;;;;;12.30;6.00;;;7.30;99.90;;;;;;4928611;29;21246;-57
2023/05/03 06:07:15;;;;;;;11.40;6.30;;;7.50;99.90;;;;;;4935137;29;20619;-58
2023/05/03 06:09:43;;;;;;;8.87;6.23;;;7.60;99.90;;;;;;4930012;29;20231;-57
2023/05/03 06:12:12;;;;;;;12.17;6.50;;;7.70;99.90;;;;;;4928732;29;20248;-57
2023/05/03 06:14:41;;;;;;;13.20;6.40;;;7.90;99.90;;;;;;4934681;29;20217;-58
2023/05/03 06:17:28;;;;;;;9.40;6.03;;;8.10;99.90;;;;;;4926600;29;20310;-57
2023/05/03 06:19:56;;;;;;;9.10;6.23;;;8.20;99.90;;;;;;4931787;29;20229;-57
2023/05/03 06:22:25;;;;;;;9.23;6.30;;;8.30;99.90;;;;;;4933796;29;20303;-57
2023/05/03 06:24:55;;;;;;;7.80;6.50;;;8.30;1.00;;;;;;4936778;29;20221;-57
2023/05/03 06:27:24;;;;;;;8.77;6.23;;;8.50;1.00;;;;;;4935504;29;20612;-58
2023/05/03 06:29:53;;;;;;;8.40;6.27;;;8.70;1.00;;;;;;4934693;29;20208;-57
2023/05/03 06:32:22;;;;;;;12.00;6.50;;;8.80;1.00;;;;;;4926348;29;20253;-57
2023/05/03 06:34:51;;;;;;;12.47;6.30;;;9.00;1.00;;;;;;4918126;29;20231;-58
2023/05/03 06:37:20;;;;;;;13.47;6.67;;;9.10;1.00;;;;;;4934701;29;20221;-57
2023/05/03 06:39:49;;;;;;;13.97;7.10;;;9.30;1.00;;;;;;4938727;29;20657;-57
2023/05/03 06:42:17;;;;;;;11.70;7.27;;;9.30;1.00;;;;;;4924579;29;20197;-58
2023/05/03 06:44:48;;;;;;;14.03;7.30;;;9.40;1.00;;;;;;4934938;29;20224;-58
2023/05/03 06:47:16;;;;;;;17.03;7.00;;;9.70;1.00;;;;;;4935042;29;20231;-58
2023/05/03 06:49:45;;;;;;;13.40;6.60;;;9.80;1.00;;;;;;4932791;29;20244;-58
2023/05/03 06:52:13;;;;;;;10.83;7.10;;;9.80;1.00;;;;;;4934518;29;20216;-58
2023/05/03 06:54:42;;;;;;;9.53;6.40;;;10.10;1.00;;;;;;4916000;29;20256;-58
2023/05/03 06:57:10;;;;;;;9.10;6.70;;;10.30;1.00;;;;;;4944096;29;20217;-58
2023/05/03 06:59:38;;;;;;;11.87;7.47;;;10.40;1.00;;;;;;4935525;29;20240;-58
2023/05/03 07:02:08;;;;;;;8.30;6.80;;;10.60;1.00;;;;;;4934841;29;20299;-58
2023/05/03 07:04:36;;;;;;;10.13;6.97;;;10.70;1.00;;;;;;4933320;29;20236;-58
2023/05/03 07:07:05;;;;;;;7.87;6.97;;;10.80;1.00;;;;;;4934386;29;20595;-57
2023/05/03 07:09:33;;;;;;;13.33;7.53;;;10.90;1.00;;;;;;4932596;29;20320;-57
2023/05/03 07:12:11;;;;;;;11.10;7.60;;;11.00;1.00;;;;;;4934414;29;20217;-58
2023/05/03 07:14:39;;;;;;;16.03;6.97;;;11.10;99.90;;;;;;4941030;29;20217;-57
2023/05/03 07:17:09;;;;;;;9.23;7.20;;;11.30;1.00;;;;;;4936492;29;20272;-58
2023/05/03 07:19:39;;;;;;;9.30;7.10;;;11.60;99.90;;;;;;4933520;29;20224;-58
2023/05/03 07:22:09;;;;;;;10.83;6.93;;;11.70;99.90;;;;;;4933723;29;20284;-58
2023/05/03 07:24:37;;;;;;;12.03;7.77;;;11.60;99.90;;;;;;4937311;29;20224;-58
2023/05/03 07:27:05;;;;;;;11.13;6.73;;;11.70;99.90;;;;;;4934216;29;20253;-58
2023/05/03 07:29:33;;;;;;;11.97;8.07;;;11.90;99.90;;;;;;4934752;29;20236;-58
2023/05/03 07:32:02;;;;;;;9.53;7.80;;;11.90;99.90;;;;;;4934021;29;20303;-58
2023/05/03 07:34:32;;;;;;;14.83;8.40;;;12.00;99.90;;;;;;4934151;29;20320;-58
2023/05/03 07:37:00;;;;;;;11.50;7.80;;;12.10;99.90;;;;;;4934153;29;20277;-58
2023/05/03 07:39:29;;;;;;;11.63;7.57;;;12.40;99.90;;;;;;4935196;29;20221;-58
2023/05/03 07:41:58;;;;;;;13.53;7.87;;;12.50;1.00;;;;;;4934566;29;20196;-58
2023/05/03 07:44:26;;;;;;;12.40;7.53;;;12.50;48.30;;;;;;4933539;29;20240;-58
2023/05/03 07:46:54;;;;;;;11.77;7.53;;;12.60;88.10;;;;;;4936084;29;20663;-58
2023/05/03 07:49:22;;;;;;;13.03;7.60;;;13.00;1.00;;;;;;4933823;29;20237;-58
2023/05/03 07:51:52;;;;;;;10.60;7.67;;;13.30;1.00;;;;;;4933510;29;20240;-58
2023/05/03 07:54:21;;;;;;;10.47;8.00;;;13.30;1.00;;;;;;4927845;29;20197;-58
2023/05/03 07:56:49;;;;;;;12.00;7.77;;;13.40;1.00;;;;;;4933885;29;20204;-58
2023/05/03 07:59:17;;;;;;;12.07;7.10;;;13.70;1.00;;;;;;4937474;29;20236;-58
2023/05/03 08:01:46;;;;;;;10.50;7.37;;;13.90;1.00;;;;;;4933979;29;20228;-58
2023/05/03 08:04:14;;;;;;;10.17;6.97;;;13.80;1.00;;;;;;4934053;29;20228;-58
2023/05/03 08:06:42;;;;;;;11.77;7.87;;;13.90;1.00;;;;;;4933270;29;20240;-58
2023/05/03 08:09:13;;;;;;;13.07;7.33;;;14.10;99.90;;;;;;4940514;29;20198;-59
2023/05/03 08:11:41;;;;;;;12.73;7.70;;;14.20;99.90;;;;;;4928361;29;20229;-58
2023/05/03 08:14:12;;;;;;;10.87;7.67;;;14.40;99.90;;;;;;4936947;29;20233;-58
2023/05/03 08:16:40;;;;;;;17.77;8.30;;;14.40;99.90;;;;;;4933317;29;20285;-58
2023/05/03 08:19:09;;;;;;;14.17;7.83;;;14.40;99.90;;;;;;4940360;29;20228;-58
2023/05/03 08:21:37;;;;;;;14.63;7.80;;;14.80;62.50;;;;;;4923963;29;20244;-58
2023/05/03 08:24:07;;;;;;;12.77;7.40;;;14.90;1.00;;;;;;4932796;29;20194;-58
2023/05/03 08:26:37;;;;;;;9.80;7.50;;;15.20;1.00;;;;;;4938271;29;20224;-58
2023/05/03 08:29:05;;;;;;;14.07;8.00;;;15.30;1.00;;;;;;4931426;29;20225;-58
2023/05/03 08:31:33;;;;;;;12.60;7.73;;;15.40;1.00;;;;;;4932254;29;20717;-59
2023/05/03 08:34:02;;;;;;;11.13;8.10;;;15.80;1.00;;;;;;4931634;29;20256;-59
2023/05/03 08:36:31;;;;;;;12.73;8.67;;;16.10;99.90;;;;;;4930416;29;20546;-59
2023/05/03 08:39:00;;;;;;;11.40;8.10;;;16.10;1.00;;;;;;4931887;29;20213;-59
2023/05/03 08:41:29;;;;;;;12.87;7.83;;;16.30;1.00;;;;;;4938899;29;20692;-59
2023/05/03 08:44:02;;;;;;;12.17;7.87;;;16.70;99.90;;;;;;4929818;29;20228;-58
2023/05/03 08:46:31;;;;;;;13.50;8.17;;;16.90;99.90;;;;;;4932533;29;20224;-58
2023/05/03 08:49:00;;;;;;;13.87;8.03;;;17.10;97.40;;;;;;4929687;29;20308;-59
2023/05/03 08:51:28;;;;;;;12.20;7.87;;;17.60;99.90;;;;;;4932623;29;20198;-58
2023/05/03 08:53:58;;;;;;;11.83;8.10;;;17.90;1.00;;;;;;4939716;29;20667;-59
2023/05/03 08:56:29;;;;;;;10.83;8.37;;;18.10;99.90;;;;;;4939850;29;20233;-58
2023/05/03 08:59:06;;;;;;;9.83;7.53;;;18.50;21.50;;;;;;4930649;28;20285;-58
2023/05/03 09:01:36;;;;;;;9.53;8.30;;;19.00;99.90;;;;;;4915113;29;20746;-58
2023/05/03 09:04:06;;;;;;;11.17;8.63;;;18.90;99.90;;;;;;4931339;29;20243;-58
2023/05/03 09:06:35;;;;;;;13.97;9.37;;;18.60;99.90;;;;;;4937132;29;20284;-58
2023/05/03 09:09:06;;;;;;;16.60;8.57;;;19.10;13.00;;;;;;4932996;29;20247;-58
2023/05/03 09:11:36;;;;;;;13.97;8.50;;;19.10;1.00;;;;;;4929888;29;20652;-58
2023/05/03 09:14:15;;;;;;;14.53;9.33;;;18.80;1.00;;;;;;4932503;29;20223;-59
2023/05/03 09:16:45;;;;;;;13.70;9.57;;;19.10;99.90;;;;;;4931392;29;20233;-59
2023/05/03 09:19:16;;;;;;;11.93;8.53;;;19.40;99.90;;;;;;4935965;29;20250;-58
2023/05/03 09:21:46;;;;;;;12.17;8.43;;;19.50;99.90;;;;;;4941004;28;20285;-58
2023/05/03 09:24:16;;;;;;;13.80;8.67;;;19.60;99.90;;;;;;4936997;29;20682;-58
2023/05/03 09:26:45;;;;;;;11.20;9.33;;;20.00;99.90;;;;;;4937465;29;20345;-59
2023/05/03 09:29:29;;;;;;;17.57;8.73;;;20.40;1.00;;;;;;4912940;29;20234;-59
2023/05/03 09:32:01;;;;;;;15.73;8.53;;;20.40;1.00;;;;;;4932580;29;20229;-58
2023/05/03 09:34:30;;;;;;;15.33;9.07;;;20.20;1.00;;;;;;4933059;29;20228;-58
2023/05/03 09:36:58;;;;;;;13.13;8.93;;;20.20;1.00;;;;;;4935720;29;20315;-58
2023/05/03 09:39:27;;;;;;;12.77;8.73;;;20.70;1.00;;;;;;4927310;29;20231;-58
2023/05/03 09:41:56;;;;;;;12.53;8.90;;;20.70;1.00;;;;;;4934501;29;20580;-58
2023/05/03 09:44:44;;;;;;;11.80;8.30;;;21.20;99.90;;;;;;4935679;29;20235;-58
2023/05/03 09:47:12;;;;;;;14.73;9.27;;;21.00;99.90;;;;;;4933807;29;20636;-58
2023/05/03 09:49:41;;;;;;;11.17;8.40;;;21.30;99.90;;;;;;4932392;29;20579;-59
2023/05/03 09:52:11;;;;;;;12.13;8.87;;;21.10;99.90;;;;;;4933618;29;20263;-58
2023/05/03 09:54:39;;;;;;;12.40;8.97;;;21.30;99.90;;;;;;4926598;29;20750;-59
2023/05/03 09:57:09;;;;;;;11.80;8.30;;;20.80;78.20;;;;;;4936098;29;20579;-58
2023/05/03 09:59:39;;;;;;;15.53;8.83;;;20.90;76.10;;;;;;4939952;28;20225;-59
2023/05/03 10:02:08;;;;;;;14.17;8.70;;;21.40;99.90;;;;;;4933949;29;20275;-59
2023/05/03 10:04:43;;;;;;;12.93;7.83;;;22.00;99.90;;;;;;4939124;29;20260;-59
2023/05/03 10:07:14;;;;;;;11.57;9.23;;;22.10;1.00;;;;;;4938155;29;20227;-59
2023/05/03 10:09:44;;;;;;;13.93;8.73;;;22.00;1.00;;;;;;4935790;29;20591;-59
2023/05/03 10:12:15;;;;;;;12.97;8.97;;;21.10;1.00;;;;;;4929428;29;20218;-58
2023/05/03 10:14:48;;;;;;;14.03;8.77;;;20.60;1.00;;;;;;4932116;29;20201;-58
2023/05/03 10:17:21;;;;;;;12.47;8.87;;;20.80;1.00;;;;;;4916565;29;20224;-59
2023/05/03 10:20:12;;;;;;;16.00;8.90;;;21.30;1.00;;;;;;4930193;29;20362;-59
2023/05/03 10:23:11;;;;;;;16.73;8.37;;;21.40;1.00;;;;;;4927061;29;20231;-59
2023/05/03 10:26:00;;;;;;;11.43;8.07;;;21.70;1.00;;;;;;4932679;29;20278;-59
2023/05/03 10:28:29;;;;;;;12.60;9.17;;;21.50;1.00;;;;;;4915376;29;20331;-59
2023/05/03 10:30:59;;;;;;;12.43;9.00;;;21.60;1.00;;;;;;4930684;29;20276;-59
2023/05/03 10:33:33;;;;;;;17.13;8.53;;;21.10;1.00;;;;;;4927172;29;20698;-59
2023/05/03 10:36:05;;;;;;;10.70;9.17;;;21.30;1.00;;;;;;4929240;29;20200;-59
2023/05/03 10:38:34;;;;;;;14.00;8.10;;;21.30;1.00;;;;;;4928496;29;20234;-59
2023/05/03 10:41:05;;;;;;;14.40;8.93;;;21.60;1.00;;;;;;4932883;29;20279;-59
2023/05/03 10:43:45;;;;;;;9.73;7.87;;;21.50;1.00;;;;;;4931193;29;20230;-59
2023/05/03 10:46:35;;;;;;;10.17;8.63;;;21.70;1.00;;;;;;4927608;29;20600;-59
2023/05/03 10:49:16;;;;;;;11.63;8.53;;;21.90;1.00;;;;;;4928159;29;20596;-59
2023/05/03 10:51:45;;;;;;;16.13;9.00;;;22.20;1.00;;;;;;4932055;29;20557;-59
2023/05/03 10:54:13;;;;;;;13.30;8.37;;;22.10;1.00;;;;;;4934775;29;20260;-59
2023/05/03 10:56:52;;;;;;;12.17;8.43;;;22.10;1.00;;;;;;4926378;29;20204;-59
2023/05/03 10:59:22;;;;;;;14.67;8.83;;;22.30;1.00;;;;;;4902017;29;20286;-59
2023/05/03 11:01:53;;;;;;;10.60;8.70;;;22.00;1.00;;;;;;4929813;29;20229;-59
2023/05/03 11:04:43;;;;;;;13.67;9.13;;;21.50;1.00;;;;;;4921385;29;20253;-59
2023/05/03 11:07:20;;;;;;;11.20;8.47;;;21.20;1.00;;;;;;4929467;29;20228;-59
2023/05/03 11:09:48;;;;;;;10.20;7.47;;;21.10;1.00;;;;;;4925327;29;20235;-59
2023/05/03 11:12:16;;;;;;;10.90;8.60;;;21.30;1.00;;;;;;4928237;29;21288;-59
2023/05/03 11:14:45;;;;;;;12.37;8.90;;;21.00;1.00;;;;;;4931731;29;20199;-59
2023/05/03 11:17:14;;;;;;;13.27;8.97;;;21.00;1.00;;;;;;4929958;29;20944;-59
2023/05/03 11:19:45;;;;;;;10.97;8.27;;;20.70;1.00;;;;;;4932762;29;20234;-59
2023/05/03 11:22:13;;;;;;;16.50;8.97;;;20.60;1.00;;;;;;4929748;29;20227;-59
2023/05/03 11:24:42;;;;;;;10.77;9.03;;;20.40;1.00;;;;;;4929055;29;20309;-59
2023/05/03 11:27:12;;;;;;;14.60;9.20;;;20.00;1.00;;;;;;4926858;29;20253;-59
2023/05/03 11:29:41;;;;;;;14.53;9.13;;;20.10;1.00;;;;;;4922237;29;20617;-59
2023/05/03 11:32:10;;;;;;;12.67;8.67;;;19.80;1.00;;;;;;4928683;29;20228;-59
2023/05/03 11:34:40;;;;;;;14.03;8.20;;;19.70;1.00;;;;;;4934385;29;20225;-59
2023/05/03 11:37:08;;;;;;;16.30;9.63;;;20.10;1.00;;;;;;4930440;29;20593;-59
2023/05/03 11:39:38;;;;;;;11.10;8.63;;;19.90;1.00;;;;;;4931688;29;20287;-59
2023/05/03 11:42:06;;;;;;;13.53;9.77;;;19.80;1.00;;;;;;4922433;29;20943;-59
2023/05/03 11:44:36;;;;;;;11.80;8.33;;;20.00;1.00;;;;;;4930730;29;20627;-58
2023/05/03 11:47:05;;;;;;;10.13;7.33;;;20.00;1.00;;;;;;4934872;29;20227;-59
2023/05/03 11:49:34;;;;;;;13.13;8.97;;;20.20;1.00;;;;;;4942194;29;20568;-58
2023/05/03 11:52:04;;;;;;;11.67;8.87;;;20.30;1.00;;;;;;4932751;29;21145;-59
2023/05/03 11:54:32;;;;;;;13.87;8.30;;;20.10;1.00;;;;;;4926355;29;20683;-59
2023/05/03 11:57:12;;;;;;;14.00;8.67;;;20.20;1.00;;;;;;4930880;29;20201;-59
2023/05/03 11:59:41;;;;;;;12.23;8.70;;;20.40;66.00;;;;;;4911502;29;20255;-59
2023/05/03 12:02:12;;;;;;;13.63;9.43;;;20.30;1.00;;;;;;4933539;29;20292;-58
2023/05/03 12:04:42;;;;;;;10.70;8.97;;;19.60;1.00;;;;;;4926019;29;20291;-58
2023/05/03 12:07:15;;;;;;;13.87;9.13;;;19.30;1.00;;;;;;4929191;29;20323;-59
2023/05/03 12:09:48;;;;;;;11.27;9.27;;;19.60;99.90;;;;;;4925309;29;20647;-59
2023/05/03 12:12:36;;;;;;;14.53;8.97;;;19.40;1.00;;;;;;4936983;29;20236;-58
2023/05/03 12:15:11;;;;;;;14.90;9.30;;;19.40;1.00;;;;;;4926960;29;20196;-59
2023/05/03 12:17:44;;;;;;;11.13;8.33;;;19.10;1.00;;;;;;4930427;29;20710;-59
2023/05/03 12:20:18;;;;;;;17.63;9.53;;;19.10;1.00;;;;;;4929642;29;20695;-59
2023/05/03 12:22:52;;;;;;;15.73;9.23;;;19.20;1.00;;;;;;4929064;29;20237;-58
2023/05/03 12:25:26;;;;;;;14.07;8.83;;;19.10;39.60;;;;;;4928665;29;20224;-58
2023/05/03 12:28:02;;;;;;;11.77;8.83;;;19.10;26.20;;;;;;4928244;29;20296;-58
2023/05/03 12:30:33;;;;;;;11.33;8.90;;;19.10;1.00;;;;;;4928037;29;20225;-59
2023/05/03 12:33:02;;;;;;;15.07;9.13;;;18.90;1.00;;;;;;4914829;29;20196;-59
2023/05/03 12:35:32;;;;;;;13.73;9.13;;;18.80;99.90;;;;;;4915821;29;22052;-59
2023/05/03 12:38:04;;;;;;;11.57;7.80;;;19.00;1.00;;;;;;4935055;29;20683;-58
2023/05/03 12:40:37;;;;;;;15.57;9.33;;;18.90;1.00;;;;;;4936444;29;20228;-59
2023/05/03 12:43:06;;;;;;;17.43;9.03;;;18.50;1.00;;;;;;4922471;29;20233;-57
2023/05/03 12:45:35;;;;;;;11.70;7.70;;;18.50;99.90;;;;;;4942185;29;20671;-58
2023/05/03 12:48:08;;;;;;;13.00;8.63;;;18.70;65.80;;;;;;4920094;29;20194;-58
2023/05/03 12:50:37;;;;;;;13.70;9.20;;;18.70;30.50;;;;;;4915298;29;20221;-58
2023/05/03 12:53:08;;;;;;;15.03;9.53;;;18.50;1.00;;;;;;4934358;29;20239;-58
2023/05/03 12:55:39;;;;;;;13.03;8.93;;;18.50;82.80;;;;;;4938672;29;20241;-57
2023/05/03 12:58:11;;;;;;;11.77;8.63;;;18.60;99.90;;;;;;4931151;29;20260;-57
2023/05/03 13:01:00;;;;;;;13.77;8.50;;;18.60;10.40;;;;;;4930633;29;20221;-57
2023/05/03 13:03:48;;;;;;;14.43;9.17;;;18.80;44.80;;;;;;4930876;29;20230;-59
2023/05/03 13:06:37;;;;;;;10.13;8.53;;;18.70;1.00;;;;;;4920045;29;20717;-58